Latest Weather Observations for kunanyi / Mount Wellington

IDT60901

Issued at 4:51 pm EST Tuesday 20 April 2021 (issued every 10 minutes, with the page automatically refreshed every 10 minutes)

About weather observations | Map of Hobart area stations | Latest observations for Hobart area | Other Formats
Station Details ID: 094087 Name: KUNANYI (MOUNT WELLINGTON PINNACLE) Lat: -42.90 Lon: 147.24 Height: 1260.47 m
Data from the previous 72 hours. | See also: Recent months at kunanyi / Mount Wellington
Date/Time
EST
Temp
°C
App
Temp
°C
Dew
Point
°C
Rel
Hum
%
Delta-T
°C
Wind Press
QNH
hPa
Press
MSL
hPa
Rain since
9am
mm
Dir  Spd
km/h
Gust
km/h
Spd
kts
Gust
kts
20/04:30pm -1.1 -8.9 -1.1 100 0.0 SW 30 43 16 23 - - 1.8
20/04:00pm -0.8 -7.5 -0.8 100 0.0 SW 24 30 13 16 - - 1.6
20/03:30pm -1.0 -8.1 -1.0 100 0.0 SW 26 37 14 20 - - 1.0
20/03:00pm -0.5 -10.7 -0.5 100 0.0 SW 43 48 23 26 - - 0.8
20/02:30pm -0.7 -11.1 -0.7 100 0.0 SW 44 52 24 28 - - 0.8
20/02:00pm -0.7 -8.9 -0.7 100 0.0 SW 32 39 17 21 - - 0.6
20/01:30pm -0.4 -10.6 -0.4 100 0.0 SW 43 50 23 27 - - 0.4
20/01:00pm -0.6 -11.4 -0.6 100 0.0 SW 46 54 25 29 - - 0.4
20/12:30pm -0.6 -12.2 -0.6 100 0.0 SW 50 57 27 31 - - 0.4
20/12:00pm -0.7 -13.0 -0.7 100 0.0 SW 54 63 29 34 - - 0.4
20/11:30am -0.6 -12.5 -0.6 100 0.0 SW 52 59 28 32 - - 0.4
20/11:00am -0.3 -10.7 -0.3 100 0.0 SW 44 50 24 27 - - 0.2
20/10:30am -0.2 -9.6 -0.2 100 0.0 SW 39 50 21 27 - - 0.0
20/10:00am 0.0 -8.6 0.0 100 0.0 SW 35 44 19 24 - - 0.0
20/09:30am -0.1 -7.4 -0.1 100 0.0 SW 28 32 15 17 - - 0.0
20/09:00am -0.1 -6.7 -0.1 100 0.0 SW 24 28 13 15 - - 3.6
20/08:30am 0.3 -7.3 0.3 100 0.0 WSW 30 37 16 20 - - 3.4
20/08:00am 0.3 -7.9 0.3 100 0.0 WSW 33 39 18 21 - - 3.4
20/07:30am 0.7 -8.2 0.7 100 0.0 WSW 37 44 20 24 - - 3.4
20/07:00am 1.1 -7.0 1.1 100 0.0 WSW 33 41 18 22 - - 3.4
20/06:30am 1.4 -6.1 1.4 100 0.0 WSW 30 37 16 20 - - 3.2
20/06:00am 1.7 -7.4 1.7 100 0.0 WSW 39 46 21 25 - - 3.2
20/05:30am 2.0 -8.8 2.0 100 0.0 WSW 48 54 26 29 - - 2.8
20/05:00am 2.9 -4.7 2.9 100 0.0 WSW 32 37 17 20 - - 2.4
20/04:30am 3.3 -5.2 3.3 100 0.0 WSW 37 50 20 27 - - 1.8
20/04:14am 3.7 -3.4 3.7 100 0.0 WSW 30 50 16 27 - - 1.6
20/04:00am 4.0 -3.4 4.0 100 0.0 WSW 32 41 17 22 - - 1.4
20/03:51am 4.1 -3.8 4.1 100 0.0 WSW 35 46 19 25 - - 1.4
20/03:31am 4.3 -5.1 4.3 100 0.0 W 43 61 23 33 - - 1.0
20/03:30am 4.3 -4.7 4.3 100 0.0 W 41 57 22 31 - - 1.0
20/03:16am 4.5 -2.8 4.5 100 0.0 W 32 50 17 27 - - 1.0
20/03:00am 4.5 -3.0 4.5 100 0.0 WNW 33 48 18 26 - - 1.0
20/02:30am 4.8 -6.2 4.8 100 0.0 WNW 52 70 28 38 - - 0.8
20/02:00am 5.0 -7.3 5.0 100 0.0 NW 59 85 32 46 - - 0.8
20/01:30am 5.1 -5.5 5.1 100 0.0 NW 50 69 27 37 - - 0.6
20/01:00am 5.2 -5.4 5.2 100 0.0 NW 50 72 27 39 - - 0.6
20/12:30am 5.3 -5.3 5.3 100 0.0 NW 50 69 27 37 - - 0.4
20/12:00am 5.3 -7.4 5.3 100 0.0 NW 61 89 33 48 - - 0.4
 
Date/Time
EST
Temp
°C
App
Temp
°C
Dew
Point
°C
Rel
Hum
%
Delta-T
°C
Wind Press
QNH
hPa
Press
MSL
hPa
Rain since
9am
mm
Dir  Spd
km/h
Gust
km/h
Spd
kts
Gust
kts
19/11:30pm 5.1 -6.6 5.1 100 0.0 NW 56 78 30 42 - - 0.4
19/11:00pm 5.0 -6.8 5.0 100 0.0 NW 56 76 30 41 - - 0.2
19/10:43pm 5.0 -7.0 5.0 100 0.0 NW 57 76 31 41 - - 0.2
19/10:30pm 4.9 -7.5 4.9 100 0.0 NW 59 78 32 42 - - 0.0
19/10:04pm 4.7 -6.7 4.7 100 0.0 NW 54 72 29 39 - - 0.0
19/10:00pm 4.7 -6.7 4.7 100 0.0 NW 54 69 29 37 - - 0.0
19/09:31pm 4.7 -7.1 4.7 100 0.0 NW 56 76 30 41 - - 0.0
19/09:30pm 4.7 -7.1 4.7 100 0.0 NW 56 70 30 38 - - 0.0
19/09:00pm 4.6 -6.1 4.6 100 0.0 NW 50 69 27 37 - - 0.0
19/08:30pm 4.3 -5.3 4.3 100 0.0 NW 44 63 24 34 - - 0.0
19/08:21pm 4.4 -5.2 4.4 100 0.0 NW 44 65 24 35 - - 0.0
19/08:00pm 4.5 -5.5 4.4 99 0.0 NW 46 61 25 33 - - 0.0
19/07:30pm 4.4 -6.1 3.7 95 0.3 NW 48 69 26 37 - - 0.0
19/07:27pm 4.5 -6.4 3.8 95 0.3 NW 50 69 27 37 - - 0.0
19/07:00pm 4.4 -5.8 3.4 93 0.4 NW 46 63 25 34 - - 0.0
19/06:30pm 4.3 -6.7 3.0 91 0.6 NW 50 65 27 35 - - 0.0
19/06:00pm 4.4 -6.3 2.3 86 0.9 NW 48 61 26 33 - - 0.0
19/05:30pm 4.9 -3.0 2.4 84 1.1 WNW 33 46 18 25 - - 0.0
19/05:23pm 5.1 -3.3 3.6 90 0.7 WNW 37 50 20 27 - - 0.0
19/05:00pm 5.5 -4.0 4.0 90 0.7 NW 43 69 23 37 - - 0.0
19/04:54pm 5.6 -4.1 3.9 89 0.8 NW 44 69 24 37 - - 0.0
19/04:30pm 6.0 -4.3 2.8 80 1.4 NW 46 59 25 32 - - 0.0
19/04:00pm 6.5 -3.3 2.4 75 1.8 NW 43 57 23 31 - - 0.0
19/03:36pm 7.0 -0.9 2.3 72 2.1 NW 33 54 18 29 - - 0.0
19/03:30pm 7.0 -1.3 2.3 72 2.1 NW 35 54 19 29 - - 0.0
19/03:02pm 7.2 -2.6 2.5 72 2.1 NW 43 63 23 34 - - 0.0
19/03:00pm 7.2 -2.5 2.7 73 2.0 NW 43 63 23 34 - - 0.0
19/02:58pm 7.2 -2.7 2.7 73 2.0 NW 44 63 24 34 - - 0.0
19/02:30pm 6.9 -5.5 2.8 75 1.9 NW 57 80 31 43 - - 0.0
19/02:01pm 6.4 -4.5 3.6 82 1.3 NW 50 69 27 37 - - 0.0
19/02:00pm 6.5 -4.8 3.7 82 1.3 NW 52 69 28 37 - - 0.0
19/01:33pm 7.4 -4.9 3.3 75 1.9 NW 57 76 31 41 - - 0.0
19/01:30pm 7.5 -4.8 3.0 73 2.1 NW 57 72 31 39 - - 0.0
19/01:09pm 7.7 -3.2 3.6 75 1.9 NW 50 72 27 39 - - 0.0
19/01:00pm 7.7 -3.6 3.7 76 1.9 NW 52 67 28 36 - - 0.0
19/12:30pm 7.1 -4.0 4.4 83 1.3 NW 52 69 28 37 - - 0.0
19/12:25pm 6.9 -3.5 4.2 83 1.3 NW 48 69 26 37 - - 0.0
19/12:00pm 5.9 -4.9 4.2 89 0.8 NW 50 65 27 35 - - 0.0
19/11:30am 4.9 -5.6 3.9 93 0.5 NW 48 63 26 34 - - 0.0
19/11:00am 4.5 -7.1 3.8 95 0.3 NW 54 69 29 37 - - 0.0
19/10:54am 4.4 -6.9 3.7 95 0.3 NW 52 69 28 37 - - 0.0
19/10:30am 4.2 -5.6 3.2 93 0.4 WNW 44 59 24 32 - - 0.0
19/10:00am 4.2 -5.8 2.1 86 0.9 W 44 61 24 33 - - 0.0
19/09:43am 4.6 -6.3 1.3 79 1.4 W 48 67 26 36 - - 0.0
19/09:30am 5.0 -6.0 0.6 73 1.9 W 48 57 26 31 - - 0.0
19/09:00am 5.5 -6.1 -0.8 64 2.6 W 50 63 27 34 - - 0.0
19/08:30am 5.5 -6.1 -1.0 63 2.6 W 50 61 27 33 - - 0.0
19/08:00am 5.8 -5.9 -1.6 59 3.0 W 50 69 27 37 - - 0.0
19/07:57am 6.2 -5.6 -2.4 54 3.4 W 50 69 27 37 - - 0.0
19/07:30am 6.3 -6.0 -3.1 51 3.7 W 52 67 28 36 - - 0.0
19/07:10am 5.9 -7.0 -2.2 56 3.2 W 56 74 30 40 - - 0.0
19/07:00am 6.0 -7.2 -2.6 54 3.4 W 57 74 31 40 - - 0.0
19/06:31am 6.2 -6.5 -3.2 51 3.6 W 54 72 29 39 - - 0.0
19/06:30am 6.2 -6.4 -2.9 52 3.6 W 54 70 29 38 - - 0.0
19/06:00am 5.1 -6.6 -1.8 61 2.7 W 50 69 27 37 - - 0.0
19/05:44am 5.2 -6.5 -1.7 61 2.7 W 50 69 27 37 - - 0.0
19/05:30am 4.7 -6.9 -1.1 66 2.3 W 50 65 27 35 - - 0.0
19/05:00am 4.7 -8.1 -1.1 66 2.3 WSW 56 74 30 40 - - 0.0
19/04:30am 6.2 -6.1 -2.9 52 3.6 WSW 52 82 28 44 - - 0.0
19/04:00am 5.6 -7.3 -2.0 58 3.0 W 56 78 30 42 - - 0.0
19/03:30am 5.0 -7.4 -0.8 66 2.4 W 54 76 29 41 - - 0.0
19/03:04am 4.0 -6.6 0.9 80 1.3 W 46 69 25 37 - - 0.0
19/03:00am 4.4 -5.9 0.2 74 1.7 W 44 61 24 33 - - 0.0
19/02:30am 4.3 -6.3 0.8 78 1.5 W 46 72 25 39 - - 0.0
19/02:00am 3.9 -8.1 1.6 85 1.0 W 54 78 29 42 - - 0.0
19/01:30am 3.9 -7.4 1.4 84 1.1 W 50 70 27 38 - - 0.0
19/01:03am 4.0 -8.5 0.7 79 1.4 W 56 74 30 40 - - 0.0
19/01:00am 4.2 -8.9 0.5 77 1.5 W 59 74 32 40 - - 0.0
19/12:30am 4.3 -9.8 -1.1 68 2.2 W 63 91 34 49 - - 0.0
19/12:12am 4.4 -10.3 0.4 75 1.7 W 67 85 36 46 - - 0.0
19/12:00am 3.0 -11.3 2.4 96 0.3 W 67 83 36 45 - - 0.0
 
Date/Time
EST
Temp
°C
App
Temp
°C
Dew
Point
°C
Rel
Hum
%
Delta-T
°C
Wind Press
QNH
hPa
Press
MSL
hPa
Rain since
9am
mm
Dir  Spd
km/h
Gust
km/h
Spd
kts
Gust
kts
18/11:30pm 3.4 -9.2 3.4 100 0.0 WNW 59 74 32 40 - - 0.0
18/11:05pm 3.6 -7.4 3.2 97 0.2 W 50 69 27 37 - - 0.0
18/11:00pm 3.5 -7.1 3.1 97 0.2 W 48 65 26 35 - - 0.0
18/10:30pm 3.6 -6.0 3.3 98 0.1 W 43 56 23 30 - - 0.0
18/10:08pm 3.7 -5.9 3.3 97 0.2 W 43 65 23 35 - - 0.0
18/10:00pm 3.6 -6.0 3.3 98 0.1 W 43 57 23 31 - - 0.0
18/09:33pm 3.5 -6.7 3.2 98 0.1 WNW 46 67 25 36 - - 0.0
18/09:30pm 3.5 -6.7 3.2 98 0.1 WNW 46 61 25 33 - - 0.0
18/09:00pm 3.6 -7.4 2.9 95 0.3 W 50 70 27 38 - - 0.0
18/08:38pm 3.7 -6.1 3.3 97 0.2 W 44 67 24 36 - - 0.0
18/08:30pm 3.8 -7.1 3.4 97 0.2 W 50 61 27 33 - - 0.0
18/08:20pm 3.8 -6.0 3.4 97 0.2 W 44 65 24 35 - - 0.0
18/08:00pm 4.1 -5.6 3.1 93 0.4 W 43 54 23 29 - - 0.0
18/07:46pm 4.2 -6.8 2.9 91 0.6 W 50 69 27 37 - - 0.0
18/07:30pm 4.0 -7.7 3.4 96 0.3 W 54 69 29 37 - - 0.0
18/07:16pm 4.2 -7.5 3.3 94 0.4 W 54 74 29 40 - - 0.0
18/07:00pm 4.2 -7.9 3.3 94 0.4 W 56 72 30 39 - - 0.0
18/06:44pm 4.4 -7.7 3.1 91 0.6 W 56 74 30 40 - - 0.0
18/06:30pm 4.5 -7.6 3.0 90 0.7 W 56 72 30 39 - - 0.0
18/06:00pm 4.6 -6.5 4.5 99 0.0 W 52 63 28 34 - - 0.0
18/05:30pm 5.0 -4.9 2.7 85 1.0 W 44 59 24 32 - - 0.0
18/05:00pm 5.0 -3.8 3.7 91 0.6 W 39 57 21 31 - - 0.0
18/04:30pm 5.3 -5.3 3.2 86 0.9 WSW 48 67 26 36 - - 0.0
18/04:15pm 5.4 -4.8 3.4 87 0.9 W 46 67 25 36 - - 0.0
18/04:00pm 5.7 -4.9 3.2 84 1.1 W 48 65 26 35 - - 0.0
18/03:30pm 6.0 -3.8 2.3 77 1.6 W 43 57 23 31 - - 0.0
18/03:00pm 6.0 -4.7 2.3 77 1.6 W 48 67 26 36 - - 0.0
18/02:47pm 5.9 -4.8 2.7 80 1.4 W 48 67 26 36 - - 0.0
18/02:30pm 5.9 -5.2 2.7 80 1.4 W 50 63 27 34 - - 0.0
18/02:00pm 6.3 -4.0 2.6 77 1.7 W 46 69 25 37 - - 0.0
18/01:51pm 6.2 -3.7 3.0 80 1.4 W 44 63 24 34 - - 0.0
18/01:30pm 6.0 -5.1 2.5 78 1.6 W 50 69 27 37 - - 0.0
18/01:01pm 6.0 -4.3 2.5 78 1.6 W 46 65 25 35 - - 0.0
18/01:00pm 6.0 -3.9 3.0 81 1.3 W 44 61 24 33 - - 0.0
18/12:31pm 6.0 -2.2 2.6 79 1.5 W 35 54 19 29 - - 0.0
18/12:30pm 6.0 -2.6 2.6 79 1.5 W 37 54 20 29 - - 0.0
18/12:00pm 5.7 -4.5 3.4 85 1.0 W 46 61 25 33 - - 0.0
18/11:30am 5.8 -5.6 3.0 82 1.3 W 52 74 28 40 - - 0.0
18/11:21am 5.5 -6.7 2.8 83 1.2 W 56 74 30 40 - - 0.0
18/11:00am 5.0 -5.8 4.1 94 0.4 W 50 67 27 36 - - 0.0
18/10:30am 4.7 -4.8 4.1 96 0.3 W 43 61 23 33 - - 0.0
18/10:06am 4.7 -5.5 3.0 89 0.8 W 46 69 25 37 - - 0.0
18/10:00am 4.5 -5.7 3.3 92 0.5 W 46 59 25 32 - - 0.0
18/09:33am 4.6 -8.6 2.1 84 1.1 WSW 61 80 33 43 - - 0.0
18/09:30am 4.7 -8.9 2.1 83 1.1 WSW 63 78 34 42 - - 0.0
18/09:00am 4.3 -9.6 2.8 90 0.7 W 65 82 35 44 - - 0.0
18/08:30am 4.2 -8.2 2.6 89 0.7 W 57 72 31 39 - - 0.0
18/08:00am 3.9 -7.9 2.9 93 0.4 W 54 65 29 35 - - 0.0
18/07:30am 3.8 -7.1 3.4 97 0.2 W 50 65 27 35 - - 0.0
18/07:00am 3.6 -10.1 3.6 100 0.0 W 65 80 35 43 - - 0.0
18/06:30am 3.5 -9.9 3.5 100 0.0 W 63 76 34 41 - - 0.0
18/06:00am 3.4 -10.4 3.1 98 0.1 W 65 78 35 42 - - 0.0
18/05:30am 3.9 -9.4 1.8 86 0.9 W 61 76 33 41 - - 0.0
18/05:00am 3.8 -10.9 2.5 91 0.6 W 69 82 37 44 - - 0.0
18/04:30am 3.5 -11.3 2.8 95 0.3 W 70 83 38 45 - - 0.0
18/04:00am 3.5 -12.1 2.6 94 0.4 W 74 89 40 48 - - 0.0
18/03:30am 3.5 -12.1 2.9 96 0.3 WSW 74 85 40 46 - - 0.0
18/03:00am 3.2 -10.6 3.1 99 0.0 WSW 65 76 35 41 - - 0.0
18/02:30am 3.0 -10.9 2.7 98 0.1 WSW 65 78 35 42 - - 0.0
18/02:00am 3.1 -8.4 2.4 95 0.3 WSW 52 63 28 34 - - 0.0
18/01:30am 3.5 -8.8 2.2 91 0.6 WSW 56 70 30 38 - - 0.0
18/01:00am 3.6 -8.7 2.0 89 0.7 WSW 56 69 30 37 - - 0.0
18/12:48am 3.3 -8.2 2.3 93 0.4 WSW 52 72 28 39 - - 0.0
18/12:30am 3.0 -8.1 2.7 98 0.1 W 50 63 27 34 - - 0.0
18/12:00am 3.5 -8.7 2.8 95 0.3 W 56 72 30 39 - - 0.0
 
Date/Time
EST
Temp
°C
App
Temp
°C
Dew
Point
°C
Rel
Hum
%
Delta-T
°C
Wind Press
QNH
hPa
Press
MSL
hPa
Rain since
9am
mm
Dir  Spd
km/h
Gust
km/h
Spd
kts
Gust
kts
17/11:58pm 3.6 -8.2 2.9 95 0.3 W 54 72 29 39 - - 0.0
17/11:30pm 3.4 -7.9 3.3 99 0.0 W 52 65 28 35 - - 0.0
17/11:08pm 3.5 -6.7 3.4 99 0.0 W 46 67 25 36 - - 0.0
17/11:00pm 3.3 -6.6 3.0 98 0.1 W 44 57 24 31 - - 0.0
17/10:38pm 3.6 -6.3 2.7 94 0.4 W 44 65 24 35 - - 0.0
17/10:30pm 3.6 -6.7 2.7 94 0.4 W 46 59 25 32 - - 0.0
17/10:00pm 3.2 -5.3 3.2 100 0.0 W 37 50 20 27 - - 0.0
17/09:35pm 3.2 -5.7 3.2 100 0.0 W 39 59 21 32 - - 0.0
17/09:30pm 3.2 -6.4 3.2 100 0.0 W 43 59 23 32 - - 0.0
17/09:00pm 3.4 -5.5 3.1 98 0.1 W 39 54 21 29 - - 0.0
17/08:30pm 3.0 -3.8 2.9 99 0.0 W 28 39 15 21 - - 0.0
17/08:00pm 3.6 -2.0 3.3 98 0.1 W 22 35 12 19 - - 0.0
17/07:30pm 3.5 -1.2 3.1 97 0.2 WSW 17 30 9 16 - - 0.0
17/07:00pm 3.7 -2.3 3.1 96 0.3 W 24 37 13 20 - - 0.0
17/06:30pm 3.9 -2.8 3.5 97 0.2 WSW 28 44 15 24 - - 0.0
17/06:00pm 4.2 -3.9 3.3 94 0.4 WSW 35 48 19 26 - - 0.0
17/05:30pm 4.4 -6.1 3.5 94 0.4 WSW 48 59 26 32 - - 0.0
17/05:17pm 4.8 -6.1 3.5 91 0.6 WSW 50 69 27 37 - - 0.0
17/05:00pm 4.9 -4.5 4.6 98 0.1 WSW 43 54 23 29 - - 0.0

Latest Capital City Observations: Canberra | Sydney | Melbourne | Brisbane | Adelaide | Perth | Hobart | Darwin

Other formats

Comma delimited format used in spreadsheet applications
http://www.bom.gov.au/fwo/IDT60901/IDT60901.95979.axf

JavaScript Object Notation format (JSON) in row-major order
http://www.bom.gov.au/fwo/IDT60901/IDT60901.95979.json

Data quality

Most of these data are generated automatically and are frequently updated. Quality checks on data are not normally performed. It is possible for incorrect values to appear. Refer to information at About Latest Weather Observations and please check the disclaimer before using these data.